createdAt,value
2019-01-28T00:00:42.898Z,0
2019-01-28T00:01:42.884Z,0
2019-01-28T00:02:42.911Z,0
2019-01-28T00:03:42.860Z,0
2019-01-28T00:04:42.865Z,0
2019-01-28T00:05:42.600Z,0
2019-01-28T00:06:42.822Z,0
2019-01-28T00:07:42.813Z,0
2019-01-28T00:08:42.798Z,0
2019-01-28T00:09:42.533Z,0
2019-01-28T00:10:42.522Z,0
2019-01-28T00:11:42.755Z,0
2019-01-28T00:12:42.736Z,0
2019-01-28T00:13:42.721Z,0
2019-01-28T00:14:42.713Z,0
2019-01-28T00:15:42.695Z,0
2019-01-28T00:16:42.684Z,0
2019-01-28T00:17:43.990Z,0
2019-01-28T00:18:42.664Z,0
2019-01-28T00:19:42.655Z,0
2019-01-28T00:20:42.632Z,0
2019-01-28T00:21:42.616Z,0
2019-01-28T00:22:42.606Z,0
2019-01-28T00:23:42.598Z,0
2019-01-28T00:24:42.577Z,0
2019-01-28T00:25:42.563Z,0
2019-01-28T00:26:42.603Z,0
2019-01-28T00:27:42.536Z,0
2019-01-28T00:28:43.659Z,0
2019-01-28T00:29:42.519Z,0
2019-01-28T00:30:42.500Z,0
2019-01-28T00:31:42.484Z,0
2019-01-28T00:32:42.469Z,0
2019-01-28T00:33:42.454Z,0
2019-01-28T00:34:42.199Z,0
2019-01-28T00:35:42.444Z,0
2019-01-28T00:36:42.933Z,0
2019-01-28T00:37:42.411Z,0
2019-01-28T00:38:42.401Z,0
2019-01-28T00:39:42.375Z,0
2019-01-28T00:40:42.416Z,0
2019-01-28T00:41:42.352Z,0
2019-01-28T00:42:42.338Z,0
2019-01-28T00:43:42.320Z,0
2019-01-28T00:44:42.314Z,0
2019-01-28T00:45:42.298Z,0
2019-01-28T00:46:42.285Z,0
2019-01-28T00:47:42.272Z,0
2019-01-28T00:48:42.257Z,0
2019-01-28T00:49:42.244Z,0
2019-01-28T00:50:42.230Z,0
2019-01-28T00:51:42.219Z,0
2019-01-28T00:52:42.208Z,0
2019-01-28T00:53:42.189Z,0
2019-01-28T00:54:42.191Z,0
2019-01-28T00:55:42.176Z,0
2019-01-28T00:56:42.152Z,0
2019-01-28T00:57:42.138Z,0
2019-01-28T00:58:42.132Z,0
2019-01-28T00:59:42.114Z,0
2019-01-28T01:00:42.099Z,0
2019-01-28T01:01:43.779Z,0
2019-01-28T01:02:42.084Z,0
2019-01-28T01:03:42.066Z,0
2019-01-28T01:04:42.046Z,0
2019-01-28T01:05:42.037Z,0
2019-01-28T01:06:42.024Z,0
2019-01-28T01:07:42.264Z,0
2019-01-28T01:08:41.999Z,0
2019-01-28T01:09:41.986Z,0
2019-01-28T01:10:41.975Z,0
2019-01-28T01:11:41.959Z,0
2019-01-28T01:12:41.939Z,0
2019-01-28T01:13:41.691Z,0
2019-01-28T01:14:41.922Z,0
2019-01-28T01:15:41.909Z,0
2019-01-28T01:16:41.890Z,0
2019-01-28T01:17:41.878Z,0
2019-01-28T01:18:41.864Z,0
2019-01-28T01:19:41.856Z,0
2019-01-28T01:20:41.838Z,0
2019-01-28T01:21:41.837Z,0
2019-01-28T01:22:41.811Z,0
2019-01-28T01:23:41.799Z,0
2019-01-28T01:24:41.787Z,0
2019-01-28T01:25:41.533Z,0
2019-01-28T01:26:41.820Z,0
2019-01-28T01:27:41.748Z,0
2019-01-28T01:28:41.735Z,0
2019-01-28T01:29:41.732Z,0
2019-01-28T01:30:41.709Z,0
2019-01-28T01:31:41.694Z,0
2019-01-28T01:32:41.680Z,0
2019-01-28T01:33:41.666Z,0
2019-01-28T01:34:41.651Z,0
2019-01-28T01:35:41.648Z,0
2019-01-28T01:36:41.625Z,0
2019-01-28T01:37:41.618Z,0
2019-01-28T01:38:41.598Z,0
2019-01-28T01:39:41.345Z,0
2019-01-28T01:40:41.574Z,0
2019-01-28T01:41:41.561Z,0
2019-01-28T01:42:41.554Z,0
2019-01-28T01:43:41.535Z,0
2019-01-28T01:44:41.527Z,0
2019-01-28T01:45:41.509Z,0
2019-01-28T01:46:41.495Z,0
2019-01-28T01:47:41.483Z,0
2019-01-28T01:48:41.535Z,0
2019-01-28T01:49:41.457Z,0
2019-01-28T01:50:41.445Z,0
2019-01-28T01:51:41.478Z,0
2019-01-28T01:52:41.427Z,0
2019-01-28T01:53:41.404Z,0
2019-01-28T01:54:41.392Z,0
2019-01-28T01:55:41.379Z,0
2019-01-28T01:56:41.366Z,0
2019-01-28T01:57:41.346Z,0
2019-01-28T01:58:41.341Z,0
2019-01-28T01:59:41.332Z,0
2019-01-28T02:00:41.312Z,0
2019-01-28T02:01:41.295Z,0
2019-01-28T02:02:42.984Z,0
2019-01-28T02:03:41.273Z,0
2019-01-28T02:04:41.264Z,0
2019-01-28T02:05:41.249Z,0
2019-01-28T02:06:41.236Z,0
2019-01-28T02:07:41.281Z,0
2019-01-28T02:08:41.210Z,0
2019-01-28T02:09:41.191Z,0
2019-01-28T02:10:41.183Z,0
2019-01-28T02:11:41.176Z,0
2019-01-28T02:12:41.158Z,0
2019-01-28T02:13:41.137Z,0
2019-01-28T02:14:41.126Z,0
2019-01-28T02:15:41.120Z,0
2019-01-28T02:16:41.102Z,0
2019-01-28T02:17:41.092Z,0
2019-01-28T02:18:41.075Z,0
2019-01-28T02:19:41.067Z,0
2019-01-28T02:20:41.047Z,0
2019-01-28T02:21:41.042Z,0
2019-01-28T02:22:41.028Z,0
2019-01-28T02:23:41.011Z,0
2019-01-28T02:24:41.009Z,0
2019-01-28T02:25:41.003Z,0
2019-01-28T02:26:40.970Z,0
2019-01-28T02:27:40.968Z,0
2019-01-28T02:28:40.940Z,0
2019-01-28T02:29:40.944Z,0
2019-01-28T02:30:40.927Z,0
2019-01-28T02:31:40.913Z,0
2019-01-28T02:32:40.650Z,0
2019-01-28T02:33:40.874Z,0
2019-01-28T02:34:40.868Z,0
2019-01-28T02:35:40.885Z,0
2019-01-28T02:36:40.848Z,0
2019-01-28T02:37:40.824Z,0
2019-01-28T02:38:40.860Z,0
2019-01-28T02:39:40.803Z,0
2019-01-28T02:40:40.788Z,0
2019-01-28T02:41:40.790Z,0
2019-01-28T02:42:40.776Z,0
2019-01-28T02:43:40.761Z,0
2019-01-28T02:44:40.735Z,0
2019-01-28T02:45:40.718Z,0
2019-01-28T02:46:40.475Z,0
2019-01-28T02:47:40.450Z,0
2019-01-28T02:48:40.792Z,0
2019-01-28T02:49:40.694Z,0
2019-01-28T02:50:40.775Z,0
2019-01-28T02:51:40.642Z,0
2019-01-28T02:52:40.629Z,0
2019-01-28T02:53:40.623Z,0
2019-01-28T02:54:40.618Z,0
2019-01-28T02:55:40.591Z,0
2019-01-28T02:56:40.588Z,0
2019-01-28T02:57:40.565Z,0
2019-01-28T02:58:40.585Z,0
2019-01-28T02:59:40.549Z,0
2019-01-28T03:00:40.532Z,0
2019-01-28T03:01:40.521Z,0
2019-01-28T03:02:40.506Z,0
2019-01-28T03:03:40.495Z,0
2019-01-28T03:04:40.476Z,0
2019-01-28T03:05:40.469Z,0
2019-01-28T03:06:40.445Z,0
2019-01-28T03:07:40.438Z,0
2019-01-28T03:08:40.423Z,0
2019-01-28T03:09:40.168Z,0
2019-01-28T03:10:40.410Z,0
2019-01-28T03:11:40.382Z,0
2019-01-28T03:12:40.376Z,0
2019-01-28T03:13:40.363Z,0
2019-01-28T03:14:40.340Z,0
2019-01-28T03:15:40.338Z,0
2019-01-28T03:16:40.319Z,0
2019-01-28T03:17:40.313Z,0
2019-01-28T03:18:40.308Z,0
2019-01-28T03:19:40.277Z,0
2019-01-28T03:20:40.289Z,0
2019-01-28T03:21:40.269Z,0
2019-01-28T03:22:40.299Z,0
2019-01-28T03:23:40.228Z,0
2019-01-28T03:24:40.209Z,0
2019-01-28T03:25:40.206Z,0
2019-01-28T03:26:40.236Z,0
2019-01-28T03:27:40.479Z,0
2019-01-28T03:28:40.166Z,0
2019-01-28T03:29:40.142Z,0
2019-01-28T03:30:39.705Z,0
2019-01-28T03:31:40.142Z,0
2019-01-28T03:32:40.182Z,0
2019-01-28T03:33:40.106Z,0
2019-01-28T03:34:40.084Z,0
2019-01-28T03:35:40.066Z,0
2019-01-28T03:36:40.149Z,0
2019-01-28T03:37:40.037Z,0
2019-01-28T03:38:40.035Z,0
2019-01-28T03:39:40.021Z,0
2019-01-28T03:40:40.012Z,0
2019-01-28T03:41:40.013Z,0
2019-01-28T03:42:39.967Z,0
2019-01-28T03:43:39.958Z,0
2019-01-28T03:44:39.945Z,0
2019-01-28T03:45:39.927Z,0
2019-01-28T03:46:39.917Z,0
2019-01-28T03:47:39.915Z,0
2019-01-28T03:48:39.897Z,0
2019-01-28T03:49:39.889Z,0
2019-01-28T03:50:39.865Z,0
2019-01-28T03:51:39.848Z,0
2019-01-28T03:52:39.842Z,0
2019-01-28T03:53:39.825Z,0
2019-01-28T03:54:39.809Z,0
2019-01-28T03:55:39.874Z,0
2019-01-28T03:56:39.779Z,0
2019-01-28T03:57:39.771Z,0
2019-01-28T03:58:39.787Z,0
2019-01-28T03:59:39.741Z,0
2019-01-28T04:00:39.732Z,0
2019-01-28T04:01:39.480Z,0
2019-01-28T04:02:39.698Z,0
2019-01-28T04:03:39.688Z,0
2019-01-28T04:04:39.676Z,0
2019-01-28T04:05:39.668Z,0
2019-01-28T04:06:39.649Z,0
2019-01-28T04:07:39.636Z,0
2019-01-28T04:08:39.614Z,0
2019-01-28T04:09:39.603Z,0
2019-01-28T04:10:39.606Z,0
2019-01-28T04:11:39.582Z,0
2019-01-28T04:12:39.570Z,0
2019-01-28T04:13:39.550Z,0
2019-01-28T04:14:39.544Z,0
2019-01-28T04:15:39.868Z,0
2019-01-28T04:16:39.509Z,0
2019-01-28T04:17:39.502Z,0
2019-01-28T04:18:39.482Z,0
2019-01-28T04:19:39.461Z,0
2019-01-28T04:20:39.487Z,0
2019-01-28T04:21:39.459Z,0
2019-01-28T04:22:39.421Z,0
2019-01-28T04:23:39.459Z,0
2019-01-28T04:24:39.397Z,0
2019-01-28T04:25:39.397Z,0
2019-01-28T04:26:39.409Z,0
2019-01-28T04:27:39.356Z,0
2019-01-28T04:28:39.338Z,0
2019-01-28T04:29:39.328Z,0
2019-01-28T04:30:39.322Z,0
2019-01-28T04:31:39.399Z,0
2019-01-28T04:32:39.284Z,0
2019-01-28T04:33:39.276Z,0
2019-01-28T04:34:39.267Z,0
2019-01-28T04:35:39.254Z,0
2019-01-28T04:36:39.239Z,0
2019-01-28T04:37:39.233Z,0
2019-01-28T04:38:39.205Z,0
2019-01-28T04:39:39.190Z,0
2019-01-28T04:40:39.173Z,0
2019-01-28T04:41:39.167Z,0
2019-01-28T04:42:39.144Z,0
2019-01-28T04:43:39.147Z,0
2019-01-28T04:44:39.148Z,0
2019-01-28T04:45:39.118Z,0
2019-01-28T04:46:39.105Z,0
2019-01-28T04:47:39.080Z,0
2019-01-28T04:48:39.074Z,0
2019-01-28T04:49:39.054Z,0
2019-01-28T04:50:39.045Z,0
2019-01-28T04:51:40.328Z,0
2019-01-28T04:52:39.012Z,0
2019-01-28T04:53:38.999Z,0
2019-01-28T04:54:38.989Z,0
2019-01-28T04:55:38.970Z,0
2019-01-28T04:56:38.958Z,0
2019-01-28T04:57:38.939Z,0
2019-01-28T04:58:38.941Z,0
2019-01-28T04:59:38.930Z,0
2019-01-28T05:00:38.908Z,0
2019-01-28T05:01:38.905Z,0
2019-01-28T05:02:38.881Z,0
2019-01-28T05:03:38.868Z,0
2019-01-28T05:04:38.843Z,0
2019-01-28T05:05:38.840Z,0
2019-01-28T05:06:38.836Z,0
2019-01-28T05:07:38.815Z,0
2019-01-28T05:08:38.786Z,0
2019-01-28T05:09:38.779Z,0
2019-01-28T05:10:38.755Z,0
2019-01-28T05:11:38.742Z,0
2019-01-28T05:12:38.734Z,0
2019-01-28T05:13:38.722Z,0
2019-01-28T05:14:38.707Z,0
2019-01-28T05:15:38.713Z,0
2019-01-28T05:16:38.690Z,0
2019-01-28T05:17:38.670Z,0
2019-01-28T05:18:38.646Z,0
2019-01-28T05:19:40.268Z,0
2019-01-28T05:20:38.626Z,0
2019-01-28T05:21:38.603Z,0
2019-01-28T05:22:38.595Z,0
2019-01-28T05:23:38.583Z,0
2019-01-28T05:24:38.578Z,0
2019-01-28T05:25:38.552Z,0
2019-01-28T05:26:38.517Z,0
2019-01-28T05:27:38.536Z,0
2019-01-28T05:28:38.509Z,0
2019-01-28T05:29:38.492Z,0
2019-01-28T05:30:38.481Z,0
2019-01-28T05:31:38.470Z,0
2019-01-28T05:32:38.463Z,0
2019-01-28T05:33:38.448Z,0
2019-01-28T05:34:38.430Z,0
2019-01-28T05:35:38.416Z,0
2019-01-28T05:36:38.398Z,0
2019-01-28T05:37:38.682Z,0
2019-01-28T05:38:38.364Z,0
2019-01-28T05:39:38.355Z,0
2019-01-28T05:40:38.342Z,0
2019-01-28T05:41:38.383Z,0
2019-01-28T05:42:38.314Z,0
2019-01-28T05:43:38.300Z,0
2019-01-28T05:44:38.291Z,0
2019-01-28T05:45:38.266Z,0
2019-01-28T05:46:38.267Z,0
2019-01-28T05:47:38.248Z,0
2019-01-28T05:48:38.229Z,0
2019-01-28T05:49:38.297Z,0
2019-01-28T05:50:38.849Z,0
2019-01-28T05:51:38.181Z,0
2019-01-28T05:52:38.177Z,0
2019-01-28T05:53:38.153Z,0
2019-01-28T05:54:38.234Z,0
2019-01-28T05:55:38.137Z,0
2019-01-28T05:56:38.141Z,0
2019-01-28T05:57:38.107Z,0
2019-01-28T05:58:38.090Z,0
2019-01-28T05:59:38.082Z,0
2019-01-28T06:00:38.060Z,0
2019-01-28T06:01:38.052Z,0
2019-01-28T06:02:38.043Z,0
2019-01-28T06:03:38.031Z,0
2019-01-28T06:04:38.025Z,0
2019-01-28T06:05:37.995Z,0
2019-01-28T06:06:37.990Z,0
2019-01-28T06:07:37.958Z,0
2019-01-28T06:08:37.953Z,0
2019-01-28T06:09:37.930Z,0
2019-01-28T06:10:37.913Z,0
2019-01-28T06:11:37.906Z,0
2019-01-28T06:12:37.892Z,0
2019-01-28T06:13:37.884Z,0
2019-01-28T06:14:39.439Z,0
2019-01-28T06:15:37.857Z,0
2019-01-28T06:16:37.843Z,0
2019-01-28T06:17:43.680Z,0
2019-01-28T06:18:37.815Z,0
2019-01-28T06:19:37.788Z,0
2019-01-28T06:20:37.776Z,0
2019-01-28T06:21:37.763Z,0
2019-01-28T06:22:37.748Z,0
2019-01-28T06:23:37.736Z,0
2019-01-28T06:24:37.728Z,0
2019-01-28T06:25:37.708Z,0
2019-01-28T06:26:37.700Z,0
2019-01-28T06:27:37.677Z,0
2019-01-28T06:28:37.674Z,0
2019-01-28T06:29:37.641Z,0
2019-01-28T06:30:37.625Z,0
2019-01-28T06:31:37.610Z,0
2019-01-28T06:32:37.597Z,0
2019-01-28T06:33:37.592Z,0
2019-01-28T06:34:37.568Z,0
2019-01-28T06:35:37.553Z,0
2019-01-28T06:36:37.554Z,0
2019-01-28T06:37:37.296Z,0
2019-01-28T06:38:37.508Z,0
2019-01-28T06:39:39.232Z,0
2019-01-28T06:40:37.481Z,0
2019-01-28T06:41:37.464Z,0
2019-01-28T06:42:37.449Z,5
2019-01-28T06:43:37.430Z,0
2019-01-28T06:44:37.421Z,5
2019-01-28T06:45:37.399Z,5
2019-01-28T06:46:37.393Z,5
2019-01-28T06:47:37.371Z,5
2019-01-28T06:48:37.352Z,5
2019-01-28T06:49:37.339Z,5
2019-01-28T06:50:37.332Z,5
2019-01-28T06:51:37.311Z,5
2019-01-28T06:52:37.293Z,10
2019-01-28T06:53:37.297Z,10
2019-01-28T06:54:37.259Z,10
2019-01-28T06:55:37.250Z,10
2019-01-28T06:56:38.530Z,10
2019-01-28T06:57:37.215Z,10
2019-01-28T06:58:37.201Z,15
2019-01-28T06:59:37.182Z,15
2019-01-28T07:00:37.178Z,15
2019-01-28T07:01:37.151Z,15
2019-01-28T07:02:37.145Z,15
2019-01-28T07:03:37.121Z,20
2019-01-28T07:04:37.107Z,20
2019-01-28T07:05:37.100Z,20
2019-01-28T07:06:37.074Z,20
2019-01-28T07:07:37.065Z,25
2019-01-28T07:08:37.042Z,25
2019-01-28T07:09:37.032Z,25
2019-01-28T07:10:37.021Z,25
2019-01-28T07:11:36.999Z,30
2019-01-28T07:12:36.998Z,30
2019-01-28T07:13:36.978Z,30
2019-01-28T07:14:36.948Z,30
2019-01-28T07:15:36.941Z,35
2019-01-28T07:16:36.920Z,35
2019-01-28T07:17:36.926Z,40
2019-01-28T07:18:36.883Z,40
2019-01-28T07:19:40.441Z,45
2019-01-28T07:20:36.929Z,40
2019-01-28T07:21:36.843Z,40
2019-01-28T07:22:36.827Z,45
2019-01-28T07:23:36.803Z,45
2019-01-28T07:24:36.793Z,45
2019-01-28T07:25:36.778Z,45
2019-01-28T07:26:36.756Z,50
2019-01-28T07:27:36.739Z,55
2019-01-28T07:28:36.724Z,55
2019-01-28T07:29:36.706Z,60
2019-01-28T07:30:36.698Z,60
2019-01-28T07:31:36.681Z,70
2019-01-28T07:32:36.677Z,70
2019-01-28T07:33:36.646Z,70
2019-01-28T07:34:36.626Z,60
2019-01-28T07:35:36.619Z,65
2019-01-28T07:36:36.598Z,65
2019-01-28T07:37:36.582Z,65
2019-01-28T07:38:36.571Z,65
2019-01-28T07:39:36.551Z,65
2019-01-28T07:40:36.294Z,65
2019-01-28T07:41:36.515Z,70
2019-01-28T07:42:36.504Z,70
2019-01-28T07:43:36.492Z,75
2019-01-28T07:44:36.478Z,75
2019-01-28T07:45:44.546Z,75
2019-01-28T07:46:36.442Z,75
2019-01-28T07:47:36.425Z,75
2019-01-28T07:48:36.417Z,75
2019-01-28T07:49:36.392Z,80
2019-01-28T07:50:36.387Z,80
2019-01-28T07:51:36.370Z,80
2019-01-28T07:52:36.347Z,80
2019-01-28T07:53:36.331Z,85
2019-01-28T07:54:36.317Z,85
2019-01-28T07:55:36.303Z,85
2019-01-28T07:56:36.287Z,85
2019-01-28T07:57:36.276Z,85
2019-01-28T07:58:36.254Z,85
2019-01-28T07:59:36.244Z,85
2019-01-28T08:00:36.230Z,90
2019-01-28T08:01:36.212Z,85
2019-01-28T08:02:36.193Z,90
2019-01-28T08:03:36.179Z,90
2019-01-28T08:04:36.161Z,90
2019-01-28T08:05:36.158Z,90
2019-01-28T08:06:36.199Z,90
2019-01-28T08:07:36.117Z,90
2019-01-28T08:08:36.100Z,90
2019-01-28T08:09:36.090Z,90
2019-01-28T08:10:35.833Z,90
2019-01-28T08:11:36.051Z,90
2019-01-28T08:12:36.037Z,90
2019-01-28T08:13:36.274Z,90
2019-01-28T08:14:36.008Z,90
2019-01-28T08:15:35.993Z,90
2019-01-28T08:16:35.982Z,90
2019-01-28T08:17:35.976Z,95
2019-01-28T08:18:35.957Z,95
2019-01-28T08:19:35.932Z,100
2019-01-28T08:20:35.925Z,100
2019-01-28T08:21:35.910Z,105
2019-01-28T08:22:35.892Z,105
2019-01-28T08:23:35.920Z,110
2019-01-28T08:24:35.912Z,110
2019-01-28T08:25:35.837Z,110
2019-01-28T08:26:35.821Z,110
2019-01-28T08:27:37.556Z,115
2019-01-28T08:28:41.627Z,115
2019-01-28T08:29:37.515Z,115
2019-01-28T08:30:35.868Z,115
2019-01-28T08:31:35.751Z,115
2019-01-28T08:32:35.736Z,115
2019-01-28T08:33:35.726Z,120
2019-01-28T08:34:35.723Z,120
2019-01-28T08:35:35.691Z,120
2019-01-28T08:36:35.437Z,120
2019-01-28T08:37:35.657Z,120
2019-01-28T08:38:35.650Z,120
2019-01-28T08:39:35.632Z,120
2019-01-28T08:40:35.620Z,125
2019-01-28T08:41:35.596Z,125
2019-01-28T08:42:35.602Z,125
2019-01-28T08:43:35.573Z,125
2019-01-28T08:44:35.562Z,125
2019-01-28T08:45:35.297Z,125
2019-01-28T08:46:39.753Z,125
2019-01-28T08:47:35.518Z,125
2019-01-28T08:48:35.494Z,125
2019-01-28T08:49:35.476Z,125
2019-01-28T08:50:35.467Z,125
2019-01-28T08:51:35.453Z,125
2019-01-28T08:52:35.431Z,130
2019-01-28T08:53:35.419Z,130
2019-01-28T08:54:35.402Z,130
2019-01-28T08:55:35.394Z,130
2019-01-28T08:56:35.440Z,125
2019-01-28T08:57:35.363Z,125
2019-01-28T08:58:35.350Z,130
2019-01-28T08:59:35.341Z,125
2019-01-28T09:00:35.330Z,125
2019-01-28T09:01:35.313Z,125
2019-01-28T09:02:35.293Z,130
2019-01-28T09:03:35.278Z,130
2019-01-28T09:04:35.255Z,125
2019-01-28T09:05:35.245Z,130
2019-01-28T09:06:35.224Z,125
2019-01-28T09:07:35.226Z,125
2019-01-28T09:08:35.200Z,130
2019-01-28T09:09:35.191Z,130
2019-01-28T09:10:35.177Z,130
2019-01-28T09:11:35.154Z,135
2019-01-28T09:12:35.154Z,135
2019-01-28T09:13:35.124Z,135
2019-01-28T09:14:35.116Z,135
2019-01-28T09:15:35.103Z,135
2019-01-28T09:16:35.084Z,135
2019-01-28T09:17:35.077Z,135
2019-01-28T09:18:36.081Z,135
2019-01-28T09:19:35.040Z,135
2019-01-28T09:20:35.029Z,135
2019-01-28T09:21:35.021Z,135
2019-01-28T09:22:35.007Z,140
2019-01-28T09:23:34.987Z,140
2019-01-28T09:24:34.967Z,135
2019-01-28T09:25:34.958Z,135
2019-01-28T09:26:35.245Z,140
2019-01-28T09:27:34.932Z,140
2019-01-28T09:28:34.685Z,140
2019-01-28T09:29:34.915Z,140
2019-01-28T09:30:34.890Z,140
2019-01-28T09:31:34.871Z,140
2019-01-28T09:32:34.859Z,140
2019-01-28T09:33:34.840Z,140
2019-01-28T09:34:34.865Z,140
2019-01-28T09:35:34.811Z,140
2019-01-28T09:36:34.799Z,140
2019-01-28T09:37:34.790Z,140
2019-01-28T09:38:34.771Z,140
2019-01-28T09:39:34.761Z,140
2019-01-28T09:40:34.752Z,140
2019-01-28T09:41:38.040Z,135
2019-01-28T09:42:34.718Z,135
2019-01-28T09:43:36.056Z,135
2019-01-28T09:44:34.687Z,135
2019-01-28T09:45:34.676Z,135
2019-01-28T09:46:34.418Z,135
2019-01-28T09:47:34.645Z,135
2019-01-28T09:48:41.476Z,135
2019-01-28T09:49:34.620Z,135
2019-01-28T09:50:34.606Z,135
2019-01-28T09:51:34.589Z,135
2019-01-28T09:52:34.576Z,135
2019-01-28T09:53:38.867Z,135
2019-01-28T09:54:34.583Z,135
2019-01-28T09:55:34.537Z,140
2019-01-28T09:56:34.519Z,140
2019-01-28T09:57:34.506Z,140
2019-01-28T09:58:34.497Z,140
2019-01-28T09:59:34.478Z,140
2019-01-28T10:00:35.939Z,140
2019-01-28T10:01:34.467Z,135
2019-01-28T10:02:34.437Z,135
2019-01-28T10:03:34.424Z,135
2019-01-28T10:04:34.421Z,140
2019-01-28T10:05:34.393Z,140
2019-01-28T10:06:34.387Z,140
2019-01-28T10:07:34.383Z,140
2019-01-28T10:08:34.355Z,140
2019-01-28T10:09:34.343Z,135
2019-01-28T10:10:34.336Z,135
2019-01-28T10:11:34.321Z,135
2019-01-28T10:12:34.676Z,135
2019-01-28T10:13:34.294Z,135
2019-01-28T10:14:34.278Z,135
2019-01-28T10:15:38.142Z,135
2019-01-28T10:16:34.254Z,135
2019-01-28T10:17:34.234Z,135
2019-01-28T10:18:41.558Z,130
2019-01-28T10:19:34.211Z,130
2019-01-28T10:20:34.203Z,135
2019-01-28T10:21:34.185Z,140
2019-01-28T10:22:34.174Z,140
2019-01-28T10:23:35.632Z,145
2019-01-28T10:24:34.144Z,145
2019-01-28T10:25:34.133Z,145
2019-01-28T10:26:34.117Z,145
2019-01-28T10:27:34.117Z,145
2019-01-28T10:28:34.095Z,145
2019-01-28T10:29:34.077Z,145
2019-01-28T10:30:34.076Z,145
2019-01-28T10:31:34.049Z,145
2019-01-28T10:32:40.832Z,145
2019-01-28T10:33:34.021Z,140
2019-01-28T10:34:34.010Z,160
2019-01-28T10:35:34.001Z,140
2019-01-28T10:36:38.966Z,140
2019-01-28T10:37:33.975Z,135
2019-01-28T10:38:33.969Z,135
2019-01-28T10:39:33.943Z,135
2019-01-28T10:40:33.929Z,135
2019-01-28T10:41:33.920Z,135
2019-01-28T10:42:33.925Z,135
2019-01-28T10:43:33.941Z,140
2019-01-28T10:44:33.885Z,140
2019-01-28T10:45:33.874Z,150
2019-01-28T10:46:33.860Z,140
2019-01-28T10:47:33.840Z,135
2019-01-28T10:48:33.831Z,135
2019-01-28T10:49:33.574Z,140
2019-01-28T10:50:33.825Z,140
2019-01-28T10:51:33.791Z,135
2019-01-28T10:52:33.788Z,135
2019-01-28T10:53:33.763Z,135
2019-01-28T10:54:33.751Z,140
2019-01-28T10:55:33.740Z,140
2019-01-28T10:56:33.720Z,145
2019-01-28T10:57:33.712Z,140
2019-01-28T10:58:33.694Z,135
2019-01-28T10:59:33.689Z,130
2019-01-28T11:00:33.697Z,135
2019-01-28T11:01:33.660Z,135
2019-01-28T11:02:33.647Z,135
2019-01-28T11:03:33.650Z,135
2019-01-28T11:04:33.620Z,125
2019-01-28T11:05:33.613Z,120
2019-01-28T11:06:33.595Z,120
2019-01-28T11:07:33.582Z,115
2019-01-28T11:08:33.570Z,115
2019-01-28T11:09:33.684Z,115
2019-01-28T11:10:33.621Z,120
2019-01-28T11:11:33.594Z,130
2019-01-28T11:12:33.498Z,130
2019-01-28T11:13:33.851Z,125
2019-01-28T11:14:33.733Z,145
2019-01-28T11:15:33.527Z,170
2019-01-28T11:16:33.633Z,145
2019-01-28T11:17:33.801Z,170
2019-01-28T11:18:33.885Z,175
2019-01-28T11:19:34.806Z,200
2019-01-28T11:20:33.759Z,215
2019-01-28T11:21:33.700Z,225
2019-01-28T11:22:33.755Z,240
2019-01-28T11:23:34.753Z,250
2019-01-28T11:24:33.661Z,255
2019-01-28T11:25:33.755Z,270
2019-01-28T11:26:33.748Z,295
2019-01-28T11:27:33.558Z,295
2019-01-28T11:28:33.480Z,290
2019-01-28T11:29:33.519Z,275
2019-01-28T11:30:33.621Z,260
2019-01-28T11:31:33.551Z,255
2019-01-28T11:32:33.590Z,255
2019-01-28T11:33:33.647Z,250
2019-01-28T11:34:33.536Z,250
2019-01-28T11:35:33.459Z,250
2019-01-28T11:36:33.415Z,255
2019-01-28T11:37:33.525Z,260
2019-01-28T11:38:33.602Z,260
2019-01-28T11:39:33.525Z,260
2019-01-28T11:40:33.315Z,245
2019-01-28T11:41:33.562Z,225
2019-01-28T11:42:33.334Z,210
2019-01-28T11:43:33.639Z,200
2019-01-28T11:44:33.578Z,200
2019-01-28T11:45:33.438Z,205
2019-01-28T11:46:33.640Z,215
2019-01-28T11:47:33.243Z,220
2019-01-28T11:48:35.363Z,230
2019-01-28T11:49:33.662Z,230
2019-01-28T11:50:33.114Z,235
2019-01-28T11:51:33.043Z,240
2019-01-28T11:52:33.046Z,240
2019-01-28T11:53:33.032Z,245
2019-01-28T11:54:33.015Z,235
2019-01-28T11:55:33.008Z,230
2019-01-28T11:56:32.990Z,225
2019-01-28T11:57:32.979Z,220
2019-01-28T11:58:32.784Z,230
2019-01-28T11:59:32.977Z,240
2019-01-28T12:00:32.955Z,240
2019-01-28T12:01:32.934Z,245
2019-01-28T12:02:41.325Z,250
2019-01-28T12:03:32.912Z,245
2019-01-28T12:04:32.930Z,235
2019-01-28T12:05:32.907Z,230
2019-01-28T12:06:32.875Z,230
2019-01-28T12:07:32.867Z,230
2019-01-28T12:08:32.858Z,235
2019-01-28T12:09:32.850Z,240
2019-01-28T12:10:32.833Z,250
2019-01-28T12:11:32.822Z,260
2019-01-28T12:12:32.811Z,265
2019-01-28T12:13:32.800Z,275
2019-01-28T12:14:32.796Z,275
2019-01-28T12:15:32.784Z,270
2019-01-28T12:16:32.537Z,270
2019-01-28T12:17:32.507Z,270
2019-01-28T12:18:32.758Z,265
2019-01-28T12:19:32.746Z,270
2019-01-28T12:20:33.364Z,275
2019-01-28T12:21:32.712Z,280
2019-01-28T12:22:32.700Z,285
2019-01-28T12:23:37.088Z,285
2019-01-28T12:24:32.687Z,290
2019-01-28T12:25:32.672Z,275
2019-01-28T12:26:32.656Z,260
2019-01-28T12:27:32.648Z,245
2019-01-28T12:28:32.666Z,240
2019-01-28T12:29:32.642Z,240
2019-01-28T12:30:32.623Z,250
2019-01-28T12:31:32.609Z,265
2019-01-28T12:32:32.597Z,275
2019-01-28T12:33:32.593Z,290
2019-01-28T12:34:32.580Z,305
2019-01-28T12:35:32.574Z,310
2019-01-28T12:36:32.556Z,320
2019-01-28T12:37:32.542Z,325
2019-01-28T12:38:32.536Z,335
2019-01-28T12:39:32.527Z,345
2019-01-28T12:40:32.517Z,355
2019-01-28T12:41:32.508Z,375
2019-01-28T12:42:32.495Z,395
2019-01-28T12:43:32.491Z,400
2019-01-28T12:44:32.473Z,395
2019-01-28T12:45:32.471Z,360
2019-01-28T12:46:32.454Z,325
2019-01-28T12:47:32.440Z,290
2019-01-28T12:48:32.736Z,255
2019-01-28T12:49:32.462Z,230
2019-01-28T12:50:32.416Z,240
2019-01-28T12:51:32.441Z,240
2019-01-28T12:52:32.450Z,235
2019-01-28T12:53:32.392Z,225
2019-01-28T12:54:32.373Z,220
2019-01-28T12:55:33.927Z,225
2019-01-28T12:56:32.353Z,240
2019-01-28T12:57:32.353Z,235
2019-01-28T12:58:32.345Z,255
2019-01-28T12:59:32.337Z,245
2019-01-28T13:00:32.336Z,225
2019-01-28T13:01:32.312Z,220
2019-01-28T13:02:32.307Z,225
2019-01-28T13:03:32.291Z,230
2019-01-28T13:04:32.070Z,225
2019-01-28T13:05:32.277Z,225
2019-01-28T13:06:32.260Z,230
2019-01-28T13:07:32.254Z,235
2019-01-28T13:08:32.646Z,265
2019-01-28T13:09:32.237Z,280
2019-01-28T13:10:32.224Z,285
2019-01-28T13:11:32.216Z,280
2019-01-28T13:12:32.205Z,270
2019-01-28T13:13:32.193Z,245
2019-01-28T13:14:31.947Z,255
2019-01-28T13:15:32.201Z,245
2019-01-28T13:16:32.167Z,230
2019-01-28T13:17:32.156Z,215
2019-01-28T13:18:32.150Z,200
2019-01-28T13:19:39.520Z,180
2019-01-28T13:20:32.130Z,165
2019-01-28T13:21:32.122Z,140
2019-01-28T13:22:32.129Z,120
2019-01-28T13:23:32.105Z,105
2019-01-28T13:24:32.092Z,90
2019-01-28T13:25:32.082Z,75
2019-01-28T13:26:32.078Z,65
2019-01-28T13:27:32.104Z,60
2019-01-28T13:28:32.057Z,70
2019-01-28T13:29:32.040Z,65
2019-01-28T13:30:32.033Z,60
2019-01-28T13:31:35.257Z,50
2019-01-28T13:32:32.022Z,40
2019-01-28T13:33:32.013Z,40
2019-01-28T13:34:31.996Z,50
2019-01-28T13:35:31.738Z,55
2019-01-28T13:36:31.981Z,65
2019-01-28T13:37:32.631Z,75
2019-01-28T13:38:31.956Z,65
2019-01-28T13:39:33.653Z,65
2019-01-28T13:40:31.935Z,60
2019-01-28T13:41:31.922Z,60
2019-01-28T13:42:31.911Z,55
2019-01-28T13:43:31.921Z,55
2019-01-28T13:44:31.889Z,60
2019-01-28T13:45:31.877Z,75
2019-01-28T13:46:31.868Z,85
2019-01-28T13:47:31.861Z,100
2019-01-28T13:48:31.400Z,100
2019-01-28T13:49:38.087Z,95
2019-01-28T13:50:31.839Z,95
2019-01-28T13:51:31.880Z,105
2019-01-28T13:52:31.808Z,110
2019-01-28T13:53:31.813Z,115
2019-01-28T13:54:31.784Z,115
2019-01-28T13:55:31.772Z,115
2019-01-28T13:56:32.942Z,105
2019-01-28T13:57:31.755Z,95
2019-01-28T13:58:31.741Z,90
2019-01-28T13:59:31.730Z,95
2019-01-28T14:00:31.741Z,100
2019-01-28T14:01:31.708Z,100
2019-01-28T14:02:31.696Z,90
2019-01-28T14:03:31.691Z,90
2019-01-28T14:04:31.682Z,85
2019-01-28T14:05:31.664Z,80
2019-01-28T14:06:31.650Z,80
2019-01-28T14:07:31.660Z,75
2019-01-28T14:08:31.636Z,75
2019-01-28T14:09:32.533Z,70
2019-01-28T14:10:31.610Z,70
2019-01-28T14:11:31.596Z,65
2019-01-28T14:12:31.585Z,75
2019-01-28T14:13:31.597Z,70
2019-01-28T14:14:31.564Z,70
2019-01-28T14:15:31.615Z,70
2019-01-28T14:16:31.546Z,65
2019-01-28T14:17:32.329Z,70
2019-01-28T14:18:31.517Z,70
2019-01-28T14:19:31.509Z,75